createdAt,value
2023-04-18T00:00:49.354Z,9.73
2023-04-18T00:03:18.333Z,9.93
2023-04-18T00:05:48.303Z,10.97
2023-04-18T00:08:17.444Z,10.13
2023-04-18T00:10:46.314Z,11.40
2023-04-18T00:13:19.406Z,10.90
2023-04-18T00:15:48.230Z,10.90
2023-04-18T00:18:17.313Z,11.37
2023-04-18T00:20:47.435Z,11.90
2023-04-18T00:23:16.468Z,12.00
2023-04-18T00:25:45.284Z,12.97
2023-04-18T00:28:15.588Z,12.60
2023-04-18T00:30:44.350Z,13.33
2023-04-18T00:33:13.022Z,13.70
2023-04-18T00:35:41.954Z,13.97
2023-04-18T00:38:10.680Z,13.90
2023-04-18T00:40:39.619Z,13.97
2023-04-18T00:43:09.751Z,14.40
2023-04-18T00:45:40.001Z,14.73
2023-04-18T00:48:09.129Z,14.80
2023-04-18T00:50:40.618Z,15.43
2023-04-18T00:53:12.485Z,15.83
2023-04-18T00:55:41.596Z,15.50
2023-04-18T00:58:10.598Z,16.00
2023-04-18T01:00:40.909Z,16.37
2023-04-18T01:03:10.870Z,18.03
2023-04-18T01:05:40.303Z,18.87
2023-04-18T01:08:09.072Z,19.63
2023-04-18T01:10:38.460Z,20.40
2023-04-18T01:13:15.175Z,20.80
2023-04-18T01:15:48.057Z,20.77
2023-04-18T01:18:18.561Z,22.30
2023-04-18T01:20:50.113Z,23.27
2023-04-18T01:23:21.905Z,22.00
2023-04-18T01:25:52.107Z,23.43
2023-04-18T01:28:22.843Z,23.27
2023-04-18T01:30:52.788Z,23.37
2023-04-18T01:33:21.538Z,24.00
2023-04-18T01:35:50.342Z,23.83
2023-04-18T01:38:19.131Z,24.00
2023-04-18T01:40:48.210Z,24.97
2023-04-18T01:43:18.501Z,25.33
2023-04-18T01:45:47.191Z,25.27
2023-04-18T01:48:16.003Z,24.17
2023-04-18T01:50:44.974Z,25.00
2023-04-18T01:53:13.646Z,23.63
2023-04-18T01:55:45.755Z,24.70
2023-04-18T01:58:15.757Z,24.80
2023-04-18T02:00:45.900Z,25.23
2023-04-18T02:03:14.842Z,25.93
2023-04-18T02:05:43.932Z,25.83
2023-04-18T02:08:12.725Z,25.20
2023-04-18T02:10:42.706Z,25.73
2023-04-18T02:13:11.388Z,27.03
2023-04-18T02:15:40.184Z,25.67
2023-04-18T02:18:11.693Z,26.10
2023-04-18T02:20:41.922Z,26.10
2023-04-18T02:23:10.760Z,27.43
2023-04-18T02:25:39.505Z,27.50
2023-04-18T02:28:08.224Z,27.27
2023-04-18T02:30:37.128Z,26.33
2023-04-18T02:33:05.995Z,26.60
2023-04-18T02:35:36.611Z,27.20
2023-04-18T02:38:05.387Z,25.83
2023-04-18T02:40:34.117Z,25.97
2023-04-18T02:43:02.835Z,27.40
2023-04-18T02:45:32.793Z,26.37
2023-04-18T02:48:03.369Z,26.73
2023-04-18T02:50:35.547Z,26.60
2023-04-18T02:53:04.530Z,25.70
2023-04-18T02:55:46.074Z,26.40
2023-04-18T02:58:14.859Z,25.87
2023-04-18T03:01:09.291Z,26.43
2023-04-18T03:03:57.527Z,25.90
2023-04-18T03:06:35.972Z,26.17
2023-04-18T03:09:05.460Z,25.43
2023-04-18T03:11:37.372Z,26.30
2023-04-18T03:14:07.513Z,27.17
2023-04-18T03:16:47.828Z,26.07
2023-04-18T03:19:20.881Z,26.07
2023-04-18T03:21:51.863Z,26.87
2023-04-18T03:24:20.644Z,26.17
2023-04-18T03:26:52.663Z,26.80
2023-04-18T03:29:25.315Z,25.83
2023-04-18T03:31:54.007Z,26.73
2023-04-18T03:34:22.811Z,26.73
2023-04-18T03:36:53.658Z,26.40
2023-04-18T03:39:23.301Z,26.50
2023-04-18T03:41:54.669Z,26.23
2023-04-18T03:44:23.660Z,25.17
2023-04-18T03:46:52.629Z,25.43
2023-04-18T03:49:21.409Z,24.87
2023-04-18T03:51:50.510Z,24.97
2023-04-18T03:54:21.855Z,24.30
2023-04-18T03:56:51.671Z,25.67
2023-04-18T03:59:24.650Z,25.23
2023-04-18T04:01:53.665Z,24.83
2023-04-18T04:04:22.815Z,24.77
2023-04-18T04:06:53.762Z,24.77
2023-04-18T04:09:24.288Z,25.70
2023-04-18T04:11:53.481Z,24.73
2023-04-18T04:14:23.015Z,24.73
2023-04-18T04:16:52.418Z,25.90
2023-04-18T04:19:22.078Z,26.47
2023-04-18T04:21:58.942Z,26.83
2023-04-18T04:24:30.861Z,26.00
2023-04-18T04:27:04.312Z,26.80
2023-04-18T04:29:39.848Z,27.23
2023-04-18T04:32:09.469Z,26.80
2023-04-18T04:34:42.186Z,26.67
2023-04-18T04:37:15.664Z,27.07
2023-04-18T04:40:00.899Z,26.10
2023-04-18T04:42:43.813Z,26.90
2023-04-18T04:45:20.121Z,26.40
2023-04-18T04:47:49.964Z,26.20
2023-04-18T04:50:21.565Z,27.33
2023-04-18T04:52:50.675Z,27.47
2023-04-18T04:55:21.383Z,27.67
2023-04-18T04:57:52.147Z,26.40
2023-04-18T05:00:38.084Z,27.73
2023-04-18T05:03:07.208Z,26.53
2023-04-18T05:05:36.260Z,25.80
2023-04-18T05:08:05.311Z,25.43
2023-04-18T05:10:37.171Z,25.13
2023-04-18T05:13:06.463Z,26.47
2023-04-18T05:15:36.042Z,25.53
2023-04-18T05:18:05.162Z,24.93
2023-04-18T05:20:34.119Z,25.10
2023-04-18T05:23:03.374Z,24.80
2023-04-18T05:25:34.161Z,24.70
2023-04-18T05:28:04.588Z,25.20
2023-04-18T05:30:33.353Z,24.87
2023-04-18T05:33:02.055Z,24.13
2023-04-18T05:35:30.817Z,25.10
2023-04-18T05:38:00.115Z,25.33
2023-04-18T05:40:30.072Z,25.67
2023-04-18T05:43:00.430Z,24.07
2023-04-18T05:45:29.114Z,24.40
2023-04-18T05:47:57.919Z,24.93
2023-04-18T05:50:26.746Z,23.20
2023-04-18T05:52:55.407Z,23.87
2023-04-18T05:55:24.120Z,22.80
2023-04-18T05:57:52.858Z,25.93
2023-04-18T06:00:23.699Z,24.13
2023-04-18T06:02:52.518Z,24.27
2023-04-18T06:05:21.656Z,23.53
2023-04-18T06:07:50.735Z,23.30
2023-04-18T06:10:19.382Z,21.80
2023-04-18T06:12:47.976Z,22.60
2023-04-18T06:15:16.651Z,20.37
2023-04-18T06:17:46.708Z,21.20
2023-04-18T06:20:15.573Z,19.83
2023-04-18T06:22:44.277Z,19.83
2023-04-18T06:25:12.953Z,18.70
2023-04-18T06:27:41.701Z,19.60
2023-04-18T06:30:12.073Z,19.00
2023-04-18T06:32:40.867Z,19.63
2023-04-18T06:35:11.492Z,19.37
2023-04-18T06:37:44.075Z,19.40
2023-04-18T06:40:13.748Z,18.13
2023-04-18T06:42:44.791Z,19.23
2023-04-18T06:45:14.267Z,18.30
2023-04-18T06:47:43.068Z,18.30
2023-04-18T06:50:13.266Z,19.30
2023-04-18T06:52:44.514Z,17.87
2023-04-18T06:55:14.775Z,18.60
2023-04-18T06:57:44.548Z,19.27
2023-04-18T07:00:14.474Z,18.83
2023-04-18T07:02:43.631Z,19.60
2023-04-18T07:05:13.925Z,20.27
2023-04-18T07:07:42.590Z,20.40
2023-04-18T07:10:12.360Z,20.47
2023-04-18T07:12:41.027Z,21.13
2023-04-18T07:15:11.784Z,21.50
2023-04-18T07:17:40.558Z,20.83
2023-04-18T07:20:12.979Z,20.63
2023-04-18T07:22:44.401Z,20.40
2023-04-18T07:25:13.256Z,21.00
2023-04-18T07:27:41.903Z,20.60
2023-04-18T07:30:12.063Z,21.73
2023-04-18T07:32:40.754Z,22.17
2023-04-18T07:35:10.411Z,20.30
2023-04-18T07:37:39.302Z,20.23
2023-04-18T07:40:11.617Z,20.13
2023-04-18T07:42:40.374Z,22.70
2023-04-18T07:45:09.833Z,20.23
2023-04-18T07:47:38.617Z,20.13
2023-04-18T07:50:10.321Z,19.97
2023-04-18T07:52:39.577Z,21.30
2023-04-18T07:55:11.003Z,21.37
2023-04-18T07:57:39.862Z,20.77
2023-04-18T08:00:10.634Z,20.90
2023-04-18T08:02:42.303Z,20.03
2023-04-18T08:05:12.090Z,20.63
2023-04-18T08:07:40.897Z,21.37
2023-04-18T08:10:11.916Z,20.33
2023-04-18T08:12:40.718Z,21.17
2023-04-18T08:15:11.057Z,20.63
2023-04-18T08:17:42.746Z,21.27
2023-04-18T08:20:13.070Z,20.87
2023-04-18T08:22:57.794Z,20.90
2023-04-18T08:25:33.233Z,20.47
2023-04-18T08:28:02.097Z,20.67
2023-04-18T08:30:31.404Z,21.10
2023-04-18T08:33:01.194Z,19.53
2023-04-18T08:35:30.004Z,19.20
2023-04-18T08:37:59.095Z,19.33
2023-04-18T08:40:27.767Z,19.30
2023-04-18T08:43:01.276Z,20.43
2023-04-18T08:45:31.344Z,20.27
2023-04-18T08:48:01.639Z,19.23
2023-04-18T08:50:30.447Z,18.00
2023-04-18T08:53:02.097Z,19.40
2023-04-18T08:55:30.881Z,20.00
2023-04-18T08:58:01.485Z,18.83
2023-04-18T09:00:30.673Z,19.57
2023-04-18T09:02:59.837Z,19.63
2023-04-18T09:05:29.782Z,19.80
2023-04-18T09:07:58.558Z,20.87
2023-04-18T09:10:29.893Z,22.10
2023-04-18T09:13:03.410Z,20.63
2023-04-18T09:15:32.678Z,20.03
2023-04-18T09:18:03.542Z,19.77
2023-04-18T09:20:37.741Z,19.87
2023-04-18T09:23:11.229Z,20.07
2023-04-18T09:25:46.747Z,19.10
2023-04-18T09:28:28.218Z,19.37
2023-04-18T09:30:58.681Z,19.03
2023-04-18T09:33:29.441Z,18.80
2023-04-18T09:36:16.709Z,18.93
2023-04-18T09:38:45.897Z,17.77
2023-04-18T09:41:19.938Z,18.93
2023-04-18T09:43:52.273Z,18.73
2023-04-18T09:46:22.644Z,18.50
2023-04-18T09:48:51.554Z,19.50
2023-04-18T09:51:20.945Z,20.43
2023-04-18T09:53:51.092Z,20.90
2023-04-18T09:56:26.788Z,20.07
2023-04-18T09:59:08.501Z,21.90
2023-04-18T10:01:37.805Z,21.27
2023-04-18T10:04:08.066Z,21.40
2023-04-18T10:06:39.942Z,21.43
2023-04-18T10:09:10.979Z,22.33
2023-04-18T10:11:40.469Z,22.03
2023-04-18T10:14:14.956Z,22.57
2023-04-18T10:16:47.485Z,22.37
2023-04-18T10:19:25.335Z,21.83
2023-04-18T10:21:56.096Z,21.83
2023-04-18T10:24:57.167Z,24.27
2023-04-18T10:27:59.979Z,23.00
2023-04-18T10:31:03.877Z,22.50
2023-04-18T10:33:35.357Z,23.00
2023-04-18T10:36:20.551Z,22.27
2023-04-18T10:38:53.081Z,23.97
2023-04-18T10:41:27.646Z,23.47
2023-04-18T10:44:20.676Z,24.20
2023-04-18T10:47:34.065Z,24.17
2023-04-18T10:50:06.895Z,24.53
2023-04-18T10:52:36.499Z,26.23
2023-04-18T10:55:17.613Z,26.27
2023-04-18T10:57:48.424Z,28.47
2023-04-18T11:00:21.729Z,25.43
2023-04-18T11:02:57.893Z,25.63
2023-04-18T11:05:30.174Z,24.30
2023-04-18T11:07:58.895Z,23.67
2023-04-18T11:10:29.546Z,24.30
2023-04-18T11:13:04.568Z,23.13
2023-04-18T11:15:33.425Z,23.43
2023-04-18T11:18:05.459Z,23.97
2023-04-18T11:20:47.095Z,22.97
2023-04-18T11:23:22.976Z,23.60
2023-04-18T11:25:54.594Z,23.23
2023-04-18T11:28:25.147Z,22.90
2023-04-18T11:30:58.425Z,24.50
2023-04-18T11:33:30.376Z,24.33
2023-04-18T11:36:00.630Z,25.00
2023-04-18T11:38:31.331Z,25.07
2023-04-18T11:41:00.432Z,23.50
2023-04-18T11:43:29.132Z,24.37
2023-04-18T11:45:59.612Z,24.83
2023-04-18T11:48:36.544Z,24.60
2023-04-18T11:51:07.493Z,23.33
2023-04-18T11:53:38.943Z,25.17
2023-04-18T11:56:08.785Z,24.60
2023-04-18T11:58:38.281Z,24.10
2023-04-18T12:01:21.810Z,23.17
2023-04-18T12:04:07.412Z,22.80
2023-04-18T12:06:52.963Z,22.83
2023-04-18T12:09:24.593Z,23.10
2023-04-18T12:12:02.184Z,23.33
2023-04-18T12:14:32.433Z,22.93
2023-04-18T12:17:06.579Z,23.83
2023-04-18T12:19:35.577Z,21.73
2023-04-18T12:22:06.813Z,20.97
2023-04-18T12:24:38.050Z,21.80
2023-04-18T12:27:09.812Z,22.10
2023-04-18T12:29:40.138Z,22.20
2023-04-18T12:32:09.889Z,21.43
2023-04-18T12:34:39.573Z,23.23
2023-04-18T12:37:16.759Z,21.90
2023-04-18T12:39:47.934Z,21.60
2023-04-18T12:42:17.840Z,22.03
2023-04-18T12:44:47.993Z,22.13
2023-04-18T12:47:18.868Z,23.13
2023-04-18T12:49:49.250Z,22.13
2023-04-18T12:52:22.446Z,22.47
2023-04-18T12:54:53.317Z,23.07
2023-04-18T12:57:24.405Z,23.03
2023-04-18T12:59:55.149Z,23.03
2023-04-18T13:02:25.408Z,22.37
2023-04-18T13:04:54.438Z,22.27
2023-04-18T13:07:27.587Z,23.83
2023-04-18T13:09:58.373Z,23.70
2023-04-18T13:12:29.952Z,22.27
2023-04-18T13:15:01.006Z,22.87
2023-04-18T13:17:30.941Z,22.37
2023-04-18T13:20:02.527Z,22.20
2023-04-18T13:22:34.602Z,19.90
2023-04-18T13:25:05.602Z,21.80
2023-04-18T13:27:38.099Z,21.80
2023-04-18T13:30:13.134Z,20.53
2023-04-18T13:32:47.845Z,20.43
2023-04-18T13:35:20.112Z,21.53
2023-04-18T13:37:51.729Z,20.53
2023-04-18T13:40:21.465Z,22.53
2023-04-18T13:42:52.051Z,21.87
2023-04-18T13:45:21.820Z,21.93
2023-04-18T13:47:53.038Z,20.90
2023-04-18T13:50:23.369Z,20.57
2023-04-18T13:52:56.921Z,22.93
2023-04-18T13:55:28.064Z,20.67
2023-04-18T13:57:59.466Z,21.00
2023-04-18T14:00:30.501Z,21.10
2023-04-18T14:03:00.707Z,21.33
2023-04-18T14:05:31.253Z,20.57
2023-04-18T14:08:04.339Z,20.47
2023-04-18T14:10:34.822Z,21.30
2023-04-18T14:13:03.917Z,19.93
2023-04-18T14:15:35.062Z,19.50
2023-04-18T14:18:04.029Z,19.67
2023-04-18T14:20:38.191Z,20.13
2023-04-18T14:23:08.707Z,19.30
2023-04-18T14:25:38.646Z,19.00
2023-04-18T14:28:10.881Z,19.20
2023-04-18T14:30:41.354Z,19.33
2023-04-18T14:33:10.826Z,18.60
2023-04-18T14:35:40.605Z,19.10
2023-04-18T14:38:11.381Z,18.70
2023-04-18T14:40:43.264Z,18.80
2023-04-18T14:43:25.068Z,19.43
2023-04-18T14:45:54.068Z,19.00
2023-04-18T14:48:22.879Z,19.80
2023-04-18T14:50:58.422Z,19.33
2023-04-18T14:53:28.879Z,19.50
2023-04-18T14:55:57.732Z,19.00
2023-04-18T14:58:26.868Z,19.00
2023-04-18T15:00:55.912Z,17.63
2023-04-18T15:03:25.369Z,18.63
2023-04-18T15:05:54.780Z,18.33
2023-04-18T15:08:23.428Z,18.03
2023-04-18T15:10:53.572Z,17.63
2023-04-18T15:13:22.528Z,19.37
2023-04-18T15:15:55.943Z,20.60
2023-04-18T15:18:26.109Z,18.60
2023-04-18T15:20:57.259Z,18.50
2023-04-18T15:23:26.358Z,19.07
2023-04-18T15:25:59.977Z,17.33
2023-04-18T15:28:29.708Z,16.97
2023-04-18T15:30:58.649Z,16.20
2023-04-18T15:33:28.498Z,16.57
2023-04-18T15:35:57.349Z,16.70
2023-04-18T15:38:26.416Z,17.27
2023-04-18T15:40:56.569Z,16.33
2023-04-18T15:43:25.868Z,17.07
2023-04-18T15:45:54.899Z,16.87
2023-04-18T15:48:23.759Z,17.60
2023-04-18T15:50:53.253Z,17.97
2023-04-18T15:53:22.079Z,17.63
2023-04-18T15:55:51.515Z,17.00
2023-04-18T15:58:22.188Z,18.93
2023-04-18T16:00:51.981Z,17.97
2023-04-18T16:03:21.500Z,17.80
2023-04-18T16:05:50.794Z,18.33
2023-04-18T16:08:20.746Z,20.03
2023-04-18T16:10:50.033Z,18.97
2023-04-18T16:13:20.444Z,20.83
2023-04-18T16:15:49.498Z,20.37
2023-04-18T16:18:18.369Z,19.93
2023-04-18T16:20:47.469Z,20.93
2023-04-18T16:23:17.073Z,21.50
2023-04-18T16:25:46.279Z,20.13
2023-04-18T16:28:17.067Z,20.10
2023-04-18T16:30:48.024Z,20.27
2023-04-18T16:33:20.797Z,20.50
2023-04-18T16:35:49.917Z,21.07
2023-04-18T16:38:18.938Z,21.77
2023-04-18T16:40:48.206Z,22.27
2023-04-18T16:43:17.030Z,21.77
2023-04-18T16:45:47.662Z,21.00
2023-04-18T16:48:16.413Z,21.07
2023-04-18T16:50:46.774Z,22.87
2023-04-18T16:53:15.493Z,23.77
2023-04-18T16:55:46.225Z,23.27
2023-04-18T16:58:26.629Z,20.80
2023-04-18T17:01:12.041Z,22.93
2023-04-18T17:03:41.114Z,21.47
2023-04-18T17:06:09.952Z,23.13
2023-04-18T17:08:39.036Z,22.10
2023-04-18T17:11:09.236Z,22.83
2023-04-18T17:13:39.139Z,22.67
2023-04-18T17:16:09.650Z,22.50
2023-04-18T17:18:38.560Z,22.07
2023-04-18T17:21:07.873Z,22.40
2023-04-18T17:23:38.600Z,21.17
2023-04-18T17:26:07.540Z,21.90
2023-04-18T17:28:36.518Z,24.20
2023-04-18T17:31:06.759Z,23.07
2023-04-18T17:33:37.193Z,22.73
2023-04-18T17:36:07.797Z,23.53
2023-04-18T17:38:36.640Z,23.80
2023-04-18T17:41:06.739Z,23.30
2023-04-18T17:43:35.575Z,23.27
2023-04-18T17:46:04.339Z,22.43
2023-04-18T17:48:33.139Z,24.50
2023-04-18T17:51:03.429Z,24.50
2023-04-18T17:53:32.634Z,24.20
2023-04-18T17:56:03.897Z,23.83
2023-04-18T17:58:33.009Z,23.33
2023-04-18T18:01:02.029Z,22.97
2023-04-18T18:03:31.375Z,21.67
2023-04-18T18:06:00.434Z,23.93
2023-04-18T18:08:30.953Z,21.70
2023-04-18T18:11:01.337Z,20.63
2023-04-18T18:13:31.550Z,19.23
2023-04-18T18:16:00.439Z,21.13
2023-04-18T18:18:32.213Z,20.80
2023-04-18T18:21:03.413Z,22.57
2023-04-18T18:23:35.366Z,20.30
2023-04-18T18:26:06.605Z,20.33
2023-04-18T18:28:36.981Z,22.50
2023-04-18T18:31:06.292Z,21.30
2023-04-18T18:33:35.406Z,22.73
2023-04-18T18:36:04.316Z,19.67
2023-04-18T18:38:35.616Z,20.13
2023-04-18T18:41:04.784Z,20.20
2023-04-18T18:43:35.668Z,19.83
2023-04-18T18:46:04.562Z,19.70
2023-04-18T18:48:38.077Z,20.13
2023-04-18T18:51:06.822Z,20.40
2023-04-18T18:53:39.659Z,21.73
2023-04-18T18:56:10.300Z,20.10
2023-04-18T18:58:39.311Z,23.43
2023-04-18T19:01:08.400Z,22.23
2023-04-18T19:03:37.809Z,22.50
2023-04-18T19:06:08.760Z,21.43
2023-04-18T19:08:41.522Z,21.10
2023-04-18T19:11:12.924Z,22.90
2023-04-18T19:13:45.147Z,21.67
2023-04-18T19:16:14.351Z,20.83
2023-04-18T19:18:47.059Z,20.17
2023-04-18T19:21:16.875Z,24.03
2023-04-18T19:23:49.773Z,23.13
2023-04-18T19:26:20.011Z,25.77
2023-04-18T19:28:49.877Z,25.23
2023-04-18T19:31:18.891Z,30.00
2023-04-18T19:33:48.731Z,29.17
2023-04-18T19:36:17.509Z,27.73
2023-04-18T19:38:46.562Z,24.13
2023-04-18T19:41:17.289Z,22.30
2023-04-18T19:43:46.792Z,20.63
2023-04-18T19:46:15.538Z,20.63
2023-04-18T19:48:56.780Z,20.17
2023-04-18T19:51:28.809Z,19.63
2023-04-18T19:53:57.863Z,19.83
2023-04-18T19:56:28.740Z,18.57
2023-04-18T19:58:58.036Z,18.23
2023-04-18T20:01:27.109Z,19.40
2023-04-18T20:03:58.681Z,20.07
2023-04-18T20:06:27.877Z,20.03
2023-04-18T20:08:56.564Z,19.83
2023-04-18T20:11:27.619Z,20.50
2023-04-18T20:13:56.682Z,20.67
2023-04-18T20:16:25.439Z,21.57
2023-04-18T20:18:55.234Z,21.20
2023-04-18T20:21:23.870Z,21.43
2023-04-18T20:23:52.593Z,20.70
2023-04-18T20:26:21.253Z,20.17
2023-04-18T20:28:51.494Z,18.57
2023-04-18T20:31:20.295Z,18.10
2023-04-18T20:33:49.206Z,18.80
2023-04-18T20:36:18.635Z,20.00
2023-04-18T20:38:47.304Z,19.17
2023-04-18T20:41:18.342Z,19.57
2023-04-18T20:43:47.089Z,19.37
2023-04-18T20:46:17.324Z,18.03
2023-04-18T20:48:45.991Z,18.93
2023-04-18T20:51:14.720Z,18.50
2023-04-18T20:53:43.457Z,18.70
2023-04-18T20:56:12.104Z,18.43
2023-04-18T20:58:41.859Z,18.43
2023-04-18T21:01:10.590Z,18.03
2023-04-18T21:03:40.813Z,19.20
2023-04-18T21:06:09.545Z,19.17
2023-04-18T21:08:39.425Z,18.07
2023-04-18T21:11:08.560Z,18.30
2023-04-18T21:13:37.841Z,18.43
2023-04-18T21:16:10.324Z,18.63
2023-04-18T21:18:40.491Z,18.93
2023-04-18T21:21:09.226Z,17.77
2023-04-18T21:23:43.858Z,18.97
2023-04-18T21:26:14.153Z,17.90
2023-04-18T21:28:57.392Z,17.73
2023-04-18T21:31:27.142Z,18.53
2023-04-18T21:33:59.395Z,18.83
2023-04-18T21:36:30.677Z,18.30
2023-04-18T21:39:01.488Z,18.70
2023-04-18T21:41:30.260Z,18.67
2023-04-18T21:43:58.881Z,17.80
2023-04-18T21:46:27.622Z,19.00
2023-04-18T21:48:57.844Z,19.13
2023-04-18T21:51:27.244Z,20.07
2023-04-18T21:53:56.034Z,18.97
2023-04-18T21:56:24.744Z,19.63
2023-04-18T21:58:53.432Z,19.40
2023-04-18T22:01:22.351Z,19.00
2023-04-18T22:03:51.296Z,19.97
2023-04-18T22:06:23.211Z,18.70
2023-04-18T22:08:52.132Z,17.30
2023-04-18T22:11:23.652Z,17.20
2023-04-18T22:13:54.252Z,18.40
2023-04-18T22:16:24.620Z,17.80
2023-04-18T22:18:54.060Z,18.43
2023-04-18T22:21:24.231Z,19.53
2023-04-18T22:23:52.979Z,18.60
2023-04-18T22:26:21.816Z,18.77
2023-04-18T22:28:50.617Z,18.50
2023-04-18T22:31:19.355Z,19.10
2023-04-18T22:33:48.489Z,18.67
2023-04-18T22:36:17.100Z,17.77
2023-04-18T22:38:47.229Z,17.93
2023-04-18T22:41:15.911Z,18.00
2023-04-18T22:43:44.571Z,16.80
2023-04-18T22:46:13.321Z,16.77
2023-04-18T22:48:42.152Z,17.60
2023-04-18T22:51:11.036Z,17.97
2023-04-18T22:53:39.690Z,18.47
2023-04-18T22:56:10.172Z,17.90
2023-04-18T22:58:38.863Z,18.07
2023-04-18T23:01:07.679Z,17.30
2023-04-18T23:03:36.617Z,17.60
2023-04-18T23:06:07.499Z,16.90
2023-04-18T23:08:36.161Z,16.73
2023-04-18T23:11:04.800Z,17.07
2023-04-18T23:13:34.864Z,16.77
2023-04-18T23:16:03.599Z,16.53
2023-04-18T23:18:32.437Z,16.37
2023-04-18T23:21:02.023Z,17.67
2023-04-18T23:23:30.955Z,16.83
2023-04-18T23:26:00.274Z,16.50
2023-04-18T23:28:28.975Z,16.83
2023-04-18T23:30:59.208Z,16.77
2023-04-18T23:33:27.867Z,16.80
2023-04-18T23:35:56.534Z,17.30
2023-04-18T23:38:25.317Z,16.67
2023-04-18T23:40:54.119Z,16.93
2023-04-18T23:43:22.757Z,16.73
2023-04-18T23:45:51.439Z,16.97
2023-04-18T23:48:21.642Z,17.57
2023-04-18T23:50:52.705Z,15.93
2023-04-18T23:53:22.590Z,16.70
2023-04-18T23:55:51.571Z,16.13
2023-04-18T23:58:20.234Z,16.50
